sensor_id;sensor_type;location;lat;lon;timestamp;pressure;altitude;pressure_sealevel;temperature;humidity
25526;BME280;13424;48.424;11.258;2024-03-25T00:00:14;94777.09;;;6.92;73.38
25526;BME280;13424;48.424;11.258;2024-03-25T00:02:41;94771.84;;;6.69;73.62
25526;BME280;13424;48.424;11.258;2024-03-25T00:05:08;94769.88;;;6.76;73.50
25526;BME280;13424;48.424;11.258;2024-03-25T00:07:40;94780.25;;;7.06;72.00
25526;BME280;13424;48.424;11.258;2024-03-25T00:10:07;94769.94;;;6.93;72.16
25526;BME280;13424;48.424;11.258;2024-03-25T00:12:35;94768.94;;;7.11;72.25
25526;BME280;13424;48.424;11.258;2024-03-25T00:15:01;94763.47;;;6.72;72.32
25526;BME280;13424;48.424;11.258;2024-03-25T00:17:27;94761.63;;;6.61;72.53
25526;BME280;13424;48.424;11.258;2024-03-25T00:19:53;94765.81;;;6.85;71.99
25526;BME280;13424;48.424;11.258;2024-03-25T00:22:20;94756.25;;;6.84;71.76
25526;BME280;13424;48.424;11.258;2024-03-25T00:24:48;94758.66;;;7.14;71.36
25526;BME280;13424;48.424;11.258;2024-03-25T00:27:15;94763.44;;;7.00;71.66
25526;BME280;13424;48.424;11.258;2024-03-25T00:29:41;94764.38;;;6.94;71.63
25526;BME280;13424;48.424;11.258;2024-03-25T00:32:08;94763.94;;;6.97;71.86
25526;BME280;13424;48.424;11.258;2024-03-25T00:34:34;94755.03;;;6.75;72.40
25526;BME280;13424;48.424;11.258;2024-03-25T00:37:01;94756.75;;;6.81;72.37
25526;BME280;13424;48.424;11.258;2024-03-25T00:39:27;94762.03;;;6.81;71.70
25526;BME280;13424;48.424;11.258;2024-03-25T00:41:55;94759.84;;;7.35;70.99
25526;BME280;13424;48.424;11.258;2024-03-25T00:44:20;94763.16;;;7.14;70.58
25526;BME280;13424;48.424;11.258;2024-03-25T00:46:47;94762.41;;;7.02;71.58
25526;BME280;13424;48.424;11.258;2024-03-25T00:49:13;94750.94;;;6.84;71.61
25526;BME280;13424;48.424;11.258;2024-03-25T00:51:39;94751.59;;;7.03;71.53
25526;BME280;13424;48.424;11.258;2024-03-25T00:54:05;94741.53;;;7.05;71.31
25526;BME280;13424;48.424;11.258;2024-03-25T00:56:31;94746.59;;;6.78;71.40
25526;BME280;13424;48.424;11.258;2024-03-25T00:58:57;94760.47;;;6.97;71.58
25526;BME280;13424;48.424;11.258;2024-03-25T01:01:32;94752.69;;;6.79;71.50
25526;BME280;13424;48.424;11.258;2024-03-25T01:03:59;94750.38;;;6.82;71.75
25526;BME280;13424;48.424;11.258;2024-03-25T01:06:25;94746.09;;;6.64;72.23
25526;BME280;13424;48.424;11.258;2024-03-25T01:08:51;94751.09;;;6.78;71.50
25526;BME280;13424;48.424;11.258;2024-03-25T01:11:17;94756.13;;;6.91;71.24
25526;BME280;13424;48.424;11.258;2024-03-25T01:13:43;94748.09;;;7.03;70.58
25526;BME280;13424;48.424;11.258;2024-03-25T01:16:10;94753.38;;;6.86;71.57
25526;BME280;13424;48.424;11.258;2024-03-25T01:18:36;94753.59;;;7.13;71.09
25526;BME280;13424;48.424;11.258;2024-03-25T01:21:03;94744.84;;;6.84;71.39
25526;BME280;13424;48.424;11.258;2024-03-25T01:23:29;94748.59;;;6.99;70.84
25526;BME280;13424;48.424;11.258;2024-03-25T01:25:55;94744.25;;;7.10;71.33
25526;BME280;13424;48.424;11.258;2024-03-25T01:28:21;94735.56;;;6.98;71.59
25526;BME280;13424;48.424;11.258;2024-03-25T01:30:48;94733.72;;;6.98;71.15
25526;BME280;13424;48.424;11.258;2024-03-25T01:33:15;94735.22;;;6.94;71.08
25526;BME280;13424;48.424;11.258;2024-03-25T01:35:41;94728.25;;;6.88;71.37
25526;BME280;13424;48.424;11.258;2024-03-25T01:38:07;94733.16;;;6.96;71.58
25526;BME280;13424;48.424;11.258;2024-03-25T01:40:34;94726.44;;;6.49;72.52
25526;BME280;13424;48.424;11.258;2024-03-25T01:43:03;94727.47;;;6.76;72.99
25526;BME280;13424;48.424;11.258;2024-03-25T01:45:34;94723.97;;;6.59;73.52
25526;BME280;13424;48.424;11.258;2024-03-25T01:48:08;94729.19;;;6.82;72.67
25526;BME280;13424;48.424;11.258;2024-03-25T01:50:44;94720.97;;;6.55;73.38
25526;BME280;13424;48.424;11.258;2024-03-25T01:53:12;94715.09;;;6.65;73.12
25526;BME280;13424;48.424;11.258;2024-03-25T01:55:40;94722.69;;;6.90;73.03
25526;BME280;13424;48.424;11.258;2024-03-25T01:58:09;94715.34;;;6.52;73.29
25526;BME280;13424;48.424;11.258;2024-03-25T02:00:35;94732.28;;;6.79;73.42
25526;BME280;13424;48.424;11.258;2024-03-25T02:03:01;94718.16;;;6.74;73.63
25526;BME280;13424;48.424;11.258;2024-03-25T02:05:28;94723.78;;;6.77;73.59
25526;BME280;13424;48.424;11.258;2024-03-25T02:07:55;94722.94;;;6.60;73.55
25526;BME280;13424;48.424;11.258;2024-03-25T02:10:22;94722.94;;;6.60;74.22
25526;BME280;13424;48.424;11.258;2024-03-25T02:12:48;94724.47;;;6.56;74.32
25526;BME280;13424;48.424;11.258;2024-03-25T02:15:14;94732.25;;;6.62;74.58
25526;BME280;13424;48.424;11.258;2024-03-25T02:17:41;94728.91;;;6.67;73.92
25526;BME280;13424;48.424;11.258;2024-03-25T02:20:08;94732.34;;;6.67;73.64
25526;BME280;13424;48.424;11.258;2024-03-25T02:22:35;94727.84;;;6.68;73.81
25526;BME280;13424;48.424;11.258;2024-03-25T02:25:08;94727.75;;;6.63;74.15
25526;BME280;13424;48.424;11.258;2024-03-25T02:27:39;94733.69;;;6.82;73.40
25526;BME280;13424;48.424;11.258;2024-03-25T02:30:10;94725.69;;;6.65;73.89
25526;BME280;13424;48.424;11.258;2024-03-25T02:32:39;94722.44;;;6.63;73.54
25526;BME280;13424;48.424;11.258;2024-03-25T02:35:10;94732.72;;;6.59;73.67
25526;BME280;13424;48.424;11.258;2024-03-25T02:37:39;94731.16;;;6.75;72.76
25526;BME280;13424;48.424;11.258;2024-03-25T02:40:08;94736.47;;;6.75;72.80
25526;BME280;13424;48.424;11.258;2024-03-25T02:42:36;94725.47;;;6.55;73.26
25526;BME280;13424;48.424;11.258;2024-03-25T02:45:03;94727.25;;;6.37;74.35
25526;BME280;13424;48.424;11.258;2024-03-25T02:47:29;94728.09;;;6.66;72.99
25526;BME280;13424;48.424;11.258;2024-03-25T02:49:55;94729.03;;;6.60;73.61
25526;BME280;13424;48.424;11.258;2024-03-25T02:52:22;94727.81;;;6.39;74.15
25526;BME280;13424;48.424;11.258;2024-03-25T02:54:48;94728.03;;;6.50;73.96
25526;BME280;13424;48.424;11.258;2024-03-25T02:57:14;94722.50;;;6.51;73.95
25526;BME280;13424;48.424;11.258;2024-03-25T02:59:40;94730.81;;;6.43;74.43
25526;BME280;13424;48.424;11.258;2024-03-25T03:02:06;94730.75;;;6.55;73.46
25526;BME280;13424;48.424;11.258;2024-03-25T03:04:32;94721.81;;;6.56;73.76
25526;BME280;13424;48.424;11.258;2024-03-25T03:06:58;94731.56;;;6.55;73.32
25526;BME280;13424;48.424;11.258;2024-03-25T03:09:24;94731.25;;;6.52;73.68
25526;BME280;13424;48.424;11.258;2024-03-25T03:11:51;94733.09;;;6.39;74.15
25526;BME280;13424;48.424;11.258;2024-03-25T03:14:17;94733.34;;;6.50;73.41
25526;BME280;13424;48.424;11.258;2024-03-25T03:16:43;94743.94;;;6.78;72.79
25526;BME280;13424;48.424;11.258;2024-03-25T03:19:09;94739.38;;;6.74;72.72
25526;BME280;13424;48.424;11.258;2024-03-25T03:21:35;94745.66;;;6.44;73.50
25526;BME280;13424;48.424;11.258;2024-03-25T03:24:05;94747.38;;;6.79;73.12
25526;BME280;13424;48.424;11.258;2024-03-25T03:26:31;94753.31;;;6.69;73.33
25526;BME280;13424;48.424;11.258;2024-03-25T03:28:58;94752.50;;;6.68;72.89
25526;BME280;13424;48.424;11.258;2024-03-25T03:31:26;94748.13;;;6.74;72.31
25526;BME280;13424;48.424;11.258;2024-03-25T03:33:52;94756.75;;;6.41;72.92
25526;BME280;13424;48.424;11.258;2024-03-25T03:36:22;94752.50;;;6.68;72.80
25526;BME280;13424;48.424;11.258;2024-03-25T03:38:51;94761.06;;;6.59;72.29
25526;BME280;13424;48.424;11.258;2024-03-25T03:41:17;94761.94;;;6.24;73.78
25526;BME280;13424;48.424;11.258;2024-03-25T03:43:43;94756.25;;;6.44;73.77
25526;BME280;13424;48.424;11.258;2024-03-25T03:46:10;94757.25;;;6.55;72.58
25526;BME280;13424;48.424;11.258;2024-03-25T03:48:36;94761.59;;;6.32;73.26
25526;BME280;13424;48.424;11.258;2024-03-25T03:51:05;94754.47;;;6.21;73.44
25526;BME280;13424;48.424;11.258;2024-03-25T03:53:33;94756.31;;;6.09;74.35
25526;BME280;13424;48.424;11.258;2024-03-25T03:56:03;94761.84;;;6.19;74.24
25526;BME280;13424;48.424;11.258;2024-03-25T03:58:31;94767.25;;;6.01;74.74
25526;BME280;13424;48.424;11.258;2024-03-25T04:01:00;94766.31;;;6.07;74.46
25526;BME280;13424;48.424;11.258;2024-03-25T04:03:27;94764.94;;;6.16;73.24
25526;BME280;13424;48.424;11.258;2024-03-25T04:05:53;94760.69;;;5.92;75.01
25526;BME280;13424;48.424;11.258;2024-03-25T04:08:19;94770.91;;;6.23;73.89
25526;BME280;13424;48.424;11.258;2024-03-25T04:10:45;94764.84;;;6.11;73.97
25526;BME280;13424;48.424;11.258;2024-03-25T04:13:12;94760.22;;;6.06;74.37
25526;BME280;13424;48.424;11.258;2024-03-25T04:15:40;94768.72;;;5.85;74.58
25526;BME280;13424;48.424;11.258;2024-03-25T04:18:07;94769.44;;;5.92;75.02
25526;BME280;13424;48.424;11.258;2024-03-25T04:20:41;94776.91;;;6.07;74.36
25526;BME280;13424;48.424;11.258;2024-03-25T04:23:08;94776.44;;;5.86;75.00
25526;BME280;13424;48.424;11.258;2024-03-25T04:25:35;94772.19;;;5.85;75.32
25526;BME280;13424;48.424;11.258;2024-03-25T04:28:05;94769.53;;;5.85;74.81
25526;BME280;13424;48.424;11.258;2024-03-25T04:30:32;94771.94;;;5.87;75.17
25526;BME280;13424;48.424;11.258;2024-03-25T04:32:59;94773.31;;;5.89;74.57
25526;BME280;13424;48.424;11.258;2024-03-25T04:35:25;94773.44;;;5.83;74.82
25526;BME280;13424;48.424;11.258;2024-03-25T04:37:52;94774.69;;;5.69;75.63
25526;BME280;13424;48.424;11.258;2024-03-25T04:40:18;94770.88;;;5.76;74.86
25526;BME280;13424;48.424;11.258;2024-03-25T04:42:45;94779.16;;;5.68;75.30
25526;BME280;13424;48.424;11.258;2024-03-25T04:45:11;94769.63;;;5.55;75.92
25526;BME280;13424;48.424;11.258;2024-03-25T04:47:38;94774.81;;;5.85;74.78
25526;BME280;13424;48.424;11.258;2024-03-25T04:50:05;94779.25;;;5.50;75.52
25526;BME280;13424;48.424;11.258;2024-03-25T04:52:31;94781.56;;;5.46;75.80
25526;BME280;13424;48.424;11.258;2024-03-25T04:54:57;94777.41;;;5.39;75.99
25526;BME280;13424;48.424;11.258;2024-03-25T04:57:24;94782.09;;;5.37;76.18
25526;BME280;13424;48.424;11.258;2024-03-25T04:59:50;94782.59;;;5.45;76.03
25526;BME280;13424;48.424;11.258;2024-03-25T05:02:16;94779.72;;;5.47;76.15
25526;BME280;13424;48.424;11.258;2024-03-25T05:04:42;94781.56;;;5.58;75.52
25526;BME280;13424;48.424;11.258;2024-03-25T05:07:08;94786.66;;;5.71;75.67
25526;BME280;13424;48.424;11.258;2024-03-25T05:09:34;94787.91;;;5.57;75.69
25526;BME280;13424;48.424;11.258;2024-03-25T05:12:01;94797.13;;;5.66;75.08
25526;BME280;13424;48.424;11.258;2024-03-25T05:14:27;94798.19;;;5.77;75.02
25526;BME280;13424;48.424;11.258;2024-03-25T05:16:53;94806.09;;;5.65;75.46
25526;BME280;13424;48.424;11.258;2024-03-25T05:19:19;94803.81;;;5.80;74.58
25526;BME280;13424;48.424;11.258;2024-03-25T05:21:45;94820.09;;;5.54;75.97
25526;BME280;13424;48.424;11.258;2024-03-25T05:24:11;94817.91;;;5.93;74.67
25526;BME280;13424;48.424;11.258;2024-03-25T05:26:37;94819.50;;;6.40;73.00
25526;BME280;13424;48.424;11.258;2024-03-25T05:29:03;94816.25;;;6.50;72.64
25526;BME280;13424;48.424;11.258;2024-03-25T05:31:29;94811.78;;;6.27;73.42
25526;BME280;13424;48.424;11.258;2024-03-25T05:33:58;94825.47;;;6.48;73.84
25526;BME280;13424;48.424;11.258;2024-03-25T05:36:27;94829.75;;;6.13;74.27
25526;BME280;13424;48.424;11.258;2024-03-25T05:38:53;94836.88;;;6.60;73.28
25526;BME280;13424;48.424;11.258;2024-03-25T05:41:19;94832.41;;;6.25;73.82
25526;BME280;13424;48.424;11.258;2024-03-25T05:43:45;94839.03;;;6.63;73.09
25526;BME280;13424;48.424;11.258;2024-03-25T05:46:11;94829.84;;;6.54;72.94
25526;BME280;13424;48.424;11.258;2024-03-25T05:48:37;94834.41;;;6.70;73.22
25526;BME280;13424;48.424;11.258;2024-03-25T05:51:06;94835.50;;;6.22;75.01
25526;BME280;13424;48.424;11.258;2024-03-25T05:53:35;94833.91;;;6.21;73.90
25526;BME280;13424;48.424;11.258;2024-03-25T05:56:02;94837.94;;;6.12;74.53
25526;BME280;13424;48.424;11.258;2024-03-25T05:58:28;94838.50;;;6.49;73.55
25526;BME280;13424;48.424;11.258;2024-03-25T06:00:54;94837.09;;;6.58;73.17
25526;BME280;13424;48.424;11.258;2024-03-25T06:03:21;94834.84;;;6.90;72.11
25526;BME280;13424;48.424;11.258;2024-03-25T06:05:47;94833.50;;;6.76;72.92
25526;BME280;13424;48.424;11.258;2024-03-25T06:08:14;94838.13;;;6.46;73.78
25526;BME280;13424;48.424;11.258;2024-03-25T06:11:01;94846.78;;;6.53;73.74
25526;BME280;13424;48.424;11.258;2024-03-25T06:13:27;94851.00;;;6.89;73.05
25526;BME280;13424;48.424;11.258;2024-03-25T06:15:53;94849.44;;;6.53;73.41
25526;BME280;13424;48.424;11.258;2024-03-25T06:18:19;94856.34;;;6.54;74.12
25526;BME280;13424;48.424;11.258;2024-03-25T06:20:46;94858.75;;;6.43;73.42
25526;BME280;13424;48.424;11.258;2024-03-25T06:23:31;94858.25;;;6.70;73.35
25526;BME280;13424;48.424;11.258;2024-03-25T06:25:57;94856.88;;;6.79;72.92
25526;BME280;13424;48.424;11.258;2024-03-25T06:28:26;94862.63;;;7.28;72.11
25526;BME280;13424;48.424;11.258;2024-03-25T06:30:52;94859.84;;;6.94;72.36
25526;BME280;13424;48.424;11.258;2024-03-25T06:33:37;94853.28;;;7.25;70.85
25526;BME280;13424;48.424;11.258;2024-03-25T06:36:22;94860.16;;;7.67;70.83
25526;BME280;13424;48.424;11.258;2024-03-25T06:38:48;94855.13;;;7.25;70.87
25526;BME280;13424;48.424;11.258;2024-03-25T06:41:15;94862.25;;;7.36;70.92
25526;BME280;13424;48.424;11.258;2024-03-25T06:43:41;94852.47;;;7.25;70.77
25526;BME280;13424;48.424;11.258;2024-03-25T06:46:08;94860.63;;;7.80;70.13
25526;BME280;13424;48.424;11.258;2024-03-25T06:48:35;94852.34;;;7.32;69.67
25526;BME280;13424;48.424;11.258;2024-03-25T06:51:01;94856.13;;;7.81;69.78
25526;BME280;13424;48.424;11.258;2024-03-25T06:53:30;94865.91;;;7.92;70.23
25526;BME280;13424;48.424;11.258;2024-03-25T06:55:58;94861.94;;;7.78;69.97
25526;BME280;13424;48.424;11.258;2024-03-25T06:58:27;94861.28;;;8.04;70.00
25526;BME280;13424;48.424;11.258;2024-03-25T07:00:56;94864.00;;;7.59;70.04
25526;BME280;13424;48.424;11.258;2024-03-25T07:03:23;94860.97;;;7.84;70.95
25526;BME280;13424;48.424;11.258;2024-03-25T07:05:51;94866.31;;;8.18;69.34
25526;BME280;13424;48.424;11.258;2024-03-25T07:08:29;94863.06;;;8.32;68.75
25526;BME280;13424;48.424;11.258;2024-03-25T07:10:59;94855.97;;;7.71;69.46
25526;BME280;13424;48.424;11.258;2024-03-25T07:13:25;94860.72;;;7.86;69.39
25526;BME280;13424;48.424;11.258;2024-03-25T07:15:52;94858.88;;;7.86;69.43
25526;BME280;13424;48.424;11.258;2024-03-25T07:18:18;94864.19;;;8.20;68.99
25526;BME280;13424;48.424;11.258;2024-03-25T07:20:44;94856.22;;;8.20;69.25
25526;BME280;13424;48.424;11.258;2024-03-25T07:23:10;94858.00;;;8.64;69.18
25526;BME280;13424;48.424;11.258;2024-03-25T07:25:37;94855.66;;;8.51;68.16
25526;BME280;13424;48.424;11.258;2024-03-25T07:28:04;94852.56;;;8.37;69.20
25526;BME280;13424;48.424;11.258;2024-03-25T07:30:31;94850.28;;;8.46;67.93
25526;BME280;13424;48.424;11.258;2024-03-25T07:33:01;94857.59;;;8.56;68.63
25526;BME280;13424;48.424;11.258;2024-03-25T07:35:27;94860.53;;;8.37;69.51
25526;BME280;13424;48.424;11.258;2024-03-25T07:37:53;94849.25;;;8.30;68.75
25526;BME280;13424;48.424;11.258;2024-03-25T07:40:20;94848.28;;;8.36;68.86
25526;BME280;13424;48.424;11.258;2024-03-25T07:42:47;94851.91;;;8.86;67.57
25526;BME280;13424;48.424;11.258;2024-03-25T07:45:15;94858.28;;;8.85;68.20
25526;BME280;13424;48.424;11.258;2024-03-25T07:47:41;94856.03;;;8.99;68.39
25526;BME280;13424;48.424;11.258;2024-03-25T07:50:08;94853.63;;;8.97;67.76
25526;BME280;13424;48.424;11.258;2024-03-25T07:52:34;94863.84;;;8.66;68.67
25526;BME280;13424;48.424;11.258;2024-03-25T07:55:09;94862.50;;;8.64;68.58
25526;BME280;13424;48.424;11.258;2024-03-25T07:57:36;94861.69;;;8.63;67.38
25526;BME280;13424;48.424;11.258;2024-03-25T08:00:03;94868.81;;;8.80;67.56
25526;BME280;13424;48.424;11.258;2024-03-25T08:02:38;94861.34;;;9.42;68.10
25526;BME280;13424;48.424;11.258;2024-03-25T08:05:04;94857.75;;;9.32;67.31
25526;BME280;13424;48.424;11.258;2024-03-25T08:07:32;94857.69;;;9.48;66.09
25526;BME280;13424;48.424;11.258;2024-03-25T08:09:58;94850.81;;;9.31;65.58
25526;BME280;13424;48.424;11.258;2024-03-25T08:12:24;94857.22;;;9.84;65.53
25526;BME280;13424;48.424;11.258;2024-03-25T08:14:50;94860.50;;;9.91;65.17
25526;BME280;13424;48.424;11.258;2024-03-25T08:17:16;94865.97;;;10.38;64.18
25526;BME280;13424;48.424;11.258;2024-03-25T08:19:42;94858.41;;;10.25;65.70
25526;BME280;13424;48.424;11.258;2024-03-25T08:22:08;94859.22;;;9.98;64.00
25526;BME280;13424;48.424;11.258;2024-03-25T08:24:34;94861.22;;;9.81;64.48
25526;BME280;13424;48.424;11.258;2024-03-25T08:27:00;94854.56;;;10.16;64.13
25526;BME280;13424;48.424;11.258;2024-03-25T08:29:26;94849.78;;;10.50;63.11
25526;BME280;13424;48.424;11.258;2024-03-25T08:31:52;94849.88;;;10.60;63.67
25526;BME280;13424;48.424;11.258;2024-03-25T08:34:18;94845.72;;;10.84;63.00
25526;BME280;13424;48.424;11.258;2024-03-25T08:36:45;94854.09;;;10.98;61.06
25526;BME280;13424;48.424;11.258;2024-03-25T08:39:11;94856.44;;;10.95;61.64
25526;BME280;13424;48.424;11.258;2024-03-25T08:41:36;94857.47;;;10.88;63.22
25526;BME280;13424;48.424;11.258;2024-03-25T08:44:02;94854.88;;;11.04;63.14
25526;BME280;13424;48.424;11.258;2024-03-25T08:46:29;94853.06;;;10.62;62.20
25526;BME280;13424;48.424;11.258;2024-03-25T08:48:55;94849.66;;;10.29;64.00
25526;BME280;13424;48.424;11.258;2024-03-25T08:51:21;94851.50;;;10.02;63.79
25526;BME280;13424;48.424;11.258;2024-03-25T08:53:47;94852.91;;;10.37;63.87
25526;BME280;13424;48.424;11.258;2024-03-25T08:56:13;94848.25;;;9.95;64.11
25526;BME280;13424;48.424;11.258;2024-03-25T08:58:39;94840.66;;;10.41;62.67
25526;BME280;13424;48.424;11.258;2024-03-25T09:01:05;94844.38;;;10.40;64.16
25526;BME280;13424;48.424;11.258;2024-03-25T09:03:31;94840.75;;;10.56;64.26
25526;BME280;13424;48.424;11.258;2024-03-25T09:05:59;94846.78;;;10.83;61.96
25526;BME280;13424;48.424;11.258;2024-03-25T09:08:25;94845.50;;;10.17;61.24
25526;BME280;13424;48.424;11.258;2024-03-25T09:10:52;94838.41;;;10.59;59.76
25526;BME280;13424;48.424;11.258;2024-03-25T09:13:32;94839.78;;;10.72;60.51
25526;BME280;13424;48.424;11.258;2024-03-25T09:15:58;94837.31;;;11.13;58.94
25526;BME280;13424;48.424;11.258;2024-03-25T09:18:24;94830.44;;;11.27;59.37
25526;BME280;13424;48.424;11.258;2024-03-25T09:20:52;94833.78;;;12.46;58.50
25526;BME280;13424;48.424;11.258;2024-03-25T09:23:18;94829.44;;;11.54;56.55
25526;BME280;13424;48.424;11.258;2024-03-25T09:25:53;94830.06;;;11.86;56.00
25526;BME280;13424;48.424;11.258;2024-03-25T09:28:19;94828.72;;;12.29;57.58
25526;BME280;13424;48.424;11.258;2024-03-25T09:30:45;94819.47;;;13.07;56.10
25526;BME280;13424;48.424;11.258;2024-03-25T09:33:11;94826.78;;;12.81;55.32
25526;BME280;13424;48.424;11.258;2024-03-25T09:35:37;94822.16;;;13.02;55.35
25526;BME280;13424;48.424;11.258;2024-03-25T09:38:03;94825.84;;;13.16;54.51
25526;BME280;13424;48.424;11.258;2024-03-25T09:40:29;94817.75;;;12.31;56.01
25526;BME280;13424;48.424;11.258;2024-03-25T09:43:00;94805.50;;;12.25;54.52
25526;BME280;13424;48.424;11.258;2024-03-25T09:45:30;94809.97;;;12.65;53.38
25526;BME280;13424;48.424;11.258;2024-03-25T09:47:56;94806.38;;;13.05;51.37
25526;BME280;13424;48.424;11.258;2024-03-25T09:50:22;94804.91;;;12.58;53.77
25526;BME280;13424;48.424;11.258;2024-03-25T09:52:49;94806.22;;;12.61;55.20
25526;BME280;13424;48.424;11.258;2024-03-25T09:55:16;94803.22;;;12.78;53.10
25526;BME280;13424;48.424;11.258;2024-03-25T09:57:45;94799.09;;;13.16;54.42
25526;BME280;13424;48.424;11.258;2024-03-25T10:00:12;94799.81;;;13.81;51.04
25526;BME280;13424;48.424;11.258;2024-03-25T10:02:47;94798.28;;;13.16;52.75
25526;BME280;13424;48.424;11.258;2024-03-25T10:05:13;94802.16;;;13.93;52.24
25526;BME280;13424;48.424;11.258;2024-03-25T10:07:39;94786.88;;;13.93;52.69
25526;BME280;13424;48.424;11.258;2024-03-25T10:10:07;94795.41;;;14.01;51.92
25526;BME280;13424;48.424;11.258;2024-03-25T10:12:35;94797.28;;;14.63;48.27
25526;BME280;13424;48.424;11.258;2024-03-25T10:15:05;94779.47;;;14.14;50.06
25526;BME280;13424;48.424;11.258;2024-03-25T10:17:32;94779.38;;;14.24;45.77
25526;BME280;13424;48.424;11.258;2024-03-25T10:19:58;94777.84;;;13.79;48.79
25526;BME280;13424;48.424;11.258;2024-03-25T10:22:27;94783.75;;;13.37;50.18
25526;BME280;13424;48.424;11.258;2024-03-25T10:24:53;94785.06;;;12.70;50.17
25526;BME280;13424;48.424;11.258;2024-03-25T10:27:23;94769.09;;;13.68;48.35
25526;BME280;13424;48.424;11.258;2024-03-25T10:29:54;94765.41;;;13.99;47.79
25526;BME280;13424;48.424;11.258;2024-03-25T10:32:23;94760.78;;;14.33;46.10
25526;BME280;13424;48.424;11.258;2024-03-25T10:34:51;94760.50;;;14.06;44.23
25526;BME280;13424;48.424;11.258;2024-03-25T10:37:18;94759.00;;;14.23;46.92
25526;BME280;13424;48.424;11.258;2024-03-25T10:39:51;94758.09;;;14.04;45.74
25526;BME280;13424;48.424;11.258;2024-03-25T10:42:21;94751.34;;;13.78;45.13
25526;BME280;13424;48.424;11.258;2024-03-25T10:44:48;94746.84;;;14.60;46.57
25526;BME280;13424;48.424;11.258;2024-03-25T10:47:28;94734.19;;;14.90;42.76
25526;BME280;13424;48.424;11.258;2024-03-25T10:49:59;94742.19;;;14.71;44.35
25526;BME280;13424;48.424;11.258;2024-03-25T10:52:29;94740.50;;;15.42;44.79
25526;BME280;13424;48.424;11.258;2024-03-25T10:54:56;94728.81;;;15.51;43.33
25526;BME280;13424;48.424;11.258;2024-03-25T10:57:24;94731.63;;;14.79;42.05
25526;BME280;13424;48.424;11.258;2024-03-25T10:59:51;94725.50;;;14.98;43.02
25526;BME280;13424;48.424;11.258;2024-03-25T11:02:19;94722.19;;;14.82;42.87
25526;BME280;13424;48.424;11.258;2024-03-25T11:04:48;94720.34;;;15.01;44.14
25526;BME280;13424;48.424;11.258;2024-03-25T11:07:17;94726.13;;;13.84;42.82
25526;BME280;13424;48.424;11.258;2024-03-25T11:09:43;94720.16;;;13.92;45.51
25526;BME280;13424;48.424;11.258;2024-03-25T11:12:13;94721.28;;;13.81;46.04
25526;BME280;13424;48.424;11.258;2024-03-25T11:14:40;94715.47;;;13.34;46.61
25526;BME280;13424;48.424;11.258;2024-03-25T11:17:16;94712.75;;;13.79;45.23
25526;BME280;13424;48.424;11.258;2024-03-25T11:19:42;94713.81;;;14.36;44.54
25526;BME280;13424;48.424;11.258;2024-03-25T11:22:10;94700.59;;;14.92;44.57
25526;BME280;13424;48.424;11.258;2024-03-25T11:24:37;94697.63;;;14.94;41.79
25526;BME280;13424;48.424;11.258;2024-03-25T11:27:07;94693.31;;;14.50;45.24
25526;BME280;13424;48.424;11.258;2024-03-25T11:29:34;94689.06;;;13.91;42.24
25526;BME280;13424;48.424;11.258;2024-03-25T11:32:05;94684.06;;;14.08;41.81
25526;BME280;13424;48.424;11.258;2024-03-25T11:34:32;94670.16;;;13.43;40.80
25526;BME280;13424;48.424;11.258;2024-03-25T11:36:58;94667.03;;;13.65;40.60
25526;BME280;13424;48.424;11.258;2024-03-25T11:39:25;94668.06;;;13.35;40.22
25526;BME280;13424;48.424;11.258;2024-03-25T11:41:52;94667.97;;;12.56;41.35
25526;BME280;13424;48.424;11.258;2024-03-25T11:44:19;94657.56;;;13.04;43.11
25526;BME280;13424;48.424;11.258;2024-03-25T11:46:50;94659.66;;;14.34;39.78
25526;BME280;13424;48.424;11.258;2024-03-25T11:49:21;94658.94;;;14.52;40.55
25526;BME280;13424;48.424;11.258;2024-03-25T11:51:47;94668.97;;;14.17;41.80
25526;BME280;13424;48.424;11.258;2024-03-25T11:54:13;94660.16;;;14.12;42.88
25526;BME280;13424;48.424;11.258;2024-03-25T11:56:40;94652.81;;;13.69;41.87
25526;BME280;13424;48.424;11.258;2024-03-25T11:59:07;94648.78;;;14.25;40.46
25526;BME280;13424;48.424;11.258;2024-03-25T12:01:34;94649.16;;;14.61;41.72
25526;BME280;13424;48.424;11.258;2024-03-25T12:04:11;94648.38;;;13.84;43.33
25526;BME280;13424;48.424;11.258;2024-03-25T12:06:37;94644.78;;;13.64;42.42
25526;BME280;13424;48.424;11.258;2024-03-25T12:09:03;94634.06;;;13.64;42.61
25526;BME280;13424;48.424;11.258;2024-03-25T12:11:48;94632.97;;;14.71;40.73
25526;BME280;13424;48.424;11.258;2024-03-25T12:14:15;94622.28;;;14.66;41.79
25526;BME280;13424;48.424;11.258;2024-03-25T12:16:42;94620.91;;;14.45;42.34
25526;BME280;13424;48.424;11.258;2024-03-25T12:19:08;94617.19;;;14.46;42.68
25526;BME280;13424;48.424;11.258;2024-03-25T12:21:34;94623.75;;;15.15;40.39
25526;BME280;13424;48.424;11.258;2024-03-25T12:24:00;94606.84;;;15.15;41.46
25526;BME280;13424;48.424;11.258;2024-03-25T12:26:26;94605.25;;;14.95;42.56
25526;BME280;13424;48.424;11.258;2024-03-25T12:28:52;94599.56;;;14.35;40.93
25526;BME280;13424;48.424;11.258;2024-03-25T12:31:18;94598.00;;;15.79;38.91
25526;BME280;13424;48.424;11.258;2024-03-25T12:33:45;94599.34;;;15.30;39.51
25526;BME280;13424;48.424;11.258;2024-03-25T12:36:14;94607.56;;;14.83;41.65
25526;BME280;13424;48.424;11.258;2024-03-25T12:38:40;94601.09;;;14.84;40.51
25526;BME280;13424;48.424;11.258;2024-03-25T12:41:12;94600.53;;;14.87;41.29
25526;BME280;13424;48.424;11.258;2024-03-25T12:43:45;94592.63;;;15.47;40.13
25526;BME280;13424;48.424;11.258;2024-03-25T12:46:11;94588.44;;;15.41;40.19
25526;BME280;13424;48.424;11.258;2024-03-25T12:48:38;94590.19;;;15.31;39.13
25526;BME280;13424;48.424;11.258;2024-03-25T12:51:14;94585.81;;;16.14;39.37
25526;BME280;13424;48.424;11.258;2024-03-25T12:53:41;94586.78;;;15.91;40.28
25526;BME280;13424;48.424;11.258;2024-03-25T12:56:07;94593.34;;;15.85;38.52
25526;BME280;13424;48.424;11.258;2024-03-25T12:58:34;94579.50;;;15.78;39.36